Baltimore/Inner Harbor, Maryland
Current Conditions -  °F | °C
As of 1:16 AM on Monday 24 Nov 2014 (Local Time) from KBWI Reporting Station
Moderate Rain Moderate Rain  
Wind Chill: 55°   Ceiling: 500
Heat Index: 55°   Visibility: 4mi
Dew Point: 55°   Wind: 10mph
Humidity: 100%   Direction: 140°SE
Pressure: 29.72"   Gusts: NA
Location:  39.28°N, 76.62°W
Report Text: KBWI 240616Z 14009KT 4SM RA BR OVC005 13/13 A2972 RMK AO2 PRESFR P0008
Loading
Personal Weather Stations






























Interactive Weather Map New forecast layout! Learn more

10-Day Weather Forecast

Advertisements
Track Severe Weather on mobile